Time;durP1;ratioP1;P1;durP2;ratioP2;P2;SDS_P1;SDS_P2;PMS_P1;PMS_P2;Temp;Humidity;BMP_temperature;BMP_pressure;BME280_temperature;BME280_humidity;BME280_pressure;Samples;Min_cycle;Max_cycle;Signal;HPM_P1;HPM_P2
2021/11/07 00:00:45;;;;;;;2.13;0.90;;;;;;;;;;4489024;28;20026;-56
2021/11/07 00:03:16;;;;;;;1.70;0.73;;;;;;;;;;4490610;28;20026;-57
2021/11/07 00:05:31;;;;;;;0.83;0.70;;;;;;;;;;4489011;28;20605;-59
2021/11/07 00:10:05;;;;;;;1.97;0.70;;;;;;;;;;4488545;28;20030;-58
2021/11/07 00:12:27;;;;;;;1.23;0.80;;;;;;;;;;4490061;28;20042;-57
2021/11/07 00:14:38;;;;;;;1.00;0.75;;;;;;;;;;4488173;28;20145;-57
2021/11/07 00:16:48;;;;;;;1.07;0.70;;;;;;;;;;4489060;28;20027;-57
2021/11/07 00:21:25;;;;;;;0.95;0.60;;;;;;;;;;4487594;28;20156;-57
2021/11/07 00:26:56;;;;;;;0.60;0.60;;;;;;;;;;4478099;28;20128;-57
2021/11/07 00:36:26;;;;;;;0.80;0.60;;;;;;;;;;4489658;28;20031;-58
2021/11/07 00:38:52;;;;;;;0.73;0.60;;;;;;;;;;4489375;28;20149;-58
2021/11/07 00:41:25;;;;;;;0.70;0.60;;;;;;;;;;4489876;28;20490;-58
2021/11/07 00:43:42;;;;;;;1.50;0.70;;;;;;;;;;4488516;28;20026;-58
2021/11/07 00:50:23;;;;;;;1.40;0.60;;;;;;;;;;4488521;28;20802;-58
2021/11/07 00:55:09;;;;;;;0.88;0.57;;;;;;;;;;4489667;28;20699;-58
2021/11/07 00:57:20;;;;;;;0.50;0.50;;;;;;;;;;4488119;28;20073;-58
2021/11/07 00:59:38;;;;;;;1.13;0.57;;;;;;;;;;4488595;28;20828;-57
2021/11/07 01:01:53;;;;;;;0.73;0.70;;;;;;;;;;4490585;28;20026;-58
2021/11/07 01:04:05;;;;;;;1.60;0.80;;;;;;;;;;4488563;28;21246;-58
2021/11/07 01:06:16;;;;;;;1.38;0.60;;;;;;;;;;4486258;28;20031;-57
2021/11/07 01:08:27;;;;;;;1.17;0.60;;;;;;;;;;4489493;28;20038;-57
2021/11/07 01:10:37;;;;;;;1.33;0.70;;;;;;;;;;4489053;28;20034;-58
2021/11/07 01:12:48;;;;;;;0.57;0.53;;;;;;;;;;4487234;28;20114;-57
2021/11/07 01:14:58;;;;;;;0.83;0.60;;;;;;;;;;4485913;28;20026;-57
2021/11/07 01:17:09;;;;;;;0.50;0.50;;;;;;;;;;4487573;28;20039;-57
2021/11/07 01:19:19;;;;;;;0.70;0.60;;;;;;;;;;4490707;28;20025;-57
2021/11/07 01:21:32;;;;;;;0.87;0.60;;;;;;;;;;4486527;28;20030;-57
2021/11/07 01:24:03;;;;;;;0.82;0.50;;;;;;;;;;4487980;28;20042;-57
2021/11/07 01:26:24;;;;;;;0.60;0.45;;;;;;;;;;4479019;28;20026;-57
2021/11/07 01:28:45;;;;;;;;;;;;;;;;;;4488434;28;20046;-58
2021/11/07 01:30:59;;;;;;;0.85;0.50;;;;;;;;;;4488358;28;19949;-58
2021/11/07 01:33:15;;;;;;;0.68;0.50;;;;;;;;;;4487703;28;20037;-58
2021/11/07 01:35:36;;;;;;;0.88;0.68;;;;;;;;;;4489648;28;20789;-58
2021/11/07 01:40:30;;;;;;;1.60;0.50;;;;;;;;;;4477193;28;20042;-57
2021/11/07 01:42:47;;;;;;;0.70;0.50;;;;;;;;;;4487082;28;20030;-57
2021/11/07 01:45:00;;;;;;;0.77;0.52;;;;;;;;;;4488351;28;20700;-57
2021/11/07 01:47:11;;;;;;;0.77;0.55;;;;;;;;;;4486808;28;20062;-58
2021/11/07 01:49:26;;;;;;;0.55;0.50;;;;;;;;;;4487931;28;20089;-58
2021/11/07 01:51:46;;;;;;;0.85;0.60;;;;;;;;;;4487722;28;20069;-58
2021/11/07 01:54:09;;;;;;;1.50;0.60;;;;;;;;;;4487927;28;20026;-58
2021/11/07 01:56:20;;;;;;;0.82;0.55;;;;;;;;;;4487878;28;20022;-58
2021/11/07 01:58:32;;;;;;;1.37;0.60;;;;;;;;;;4487902;28;20026;-59
2021/11/07 02:00:43;;;;;;;1.70;0.45;;;;;;;;;;4490745;28;20038;-58
2021/11/07 02:02:53;;;;;;;0.57;0.50;;;;;;;;;;4487262;28;20026;-58
2021/11/07 02:05:06;;;;;;;0.50;0.50;;;;;;;;;;4486762;28;20281;-58
2021/11/07 02:07:16;;;;;;;0.88;0.57;;;;;;;;;;4488723;28;20046;-58
2021/11/07 02:09:27;;;;;;;0.70;0.60;;;;;;;;;;4486524;28;20032;-58
2021/11/07 02:11:38;;;;;;;1.17;0.50;;;;;;;;;;4490206;28;20031;-58
2021/11/07 02:13:50;;;;;;;0.60;0.50;;;;;;;;;;4490618;28;20026;-58
2021/11/07 02:16:02;;;;;;;1.23;0.60;;;;;;;;;;4486876;28;20070;-58
2021/11/07 02:18:15;;;;;;;0.75;0.60;;;;;;;;;;4487553;28;20598;-58
2021/11/07 02:20:30;;;;;;;1.33;0.60;;;;;;;;;;4487807;28;20022;-58
2021/11/07 02:22:42;;;;;;;0.40;0.40;;;;;;;;;;4487646;28;20026;-58
2021/11/07 02:24:52;;;;;;;0.40;0.40;;;;;;;;;;4487769;28;20021;-58
2021/11/07 02:27:04;;;;;;;0.40;0.40;;;;;;;;;;4487464;28;20041;-58
2021/11/07 02:29:14;;;;;;;1.30;0.60;;;;;;;;;;4487691;28;20029;-58
2021/11/07 02:31:25;;;;;;;0.50;0.50;;;;;;;;;;4489722;28;20478;-58
2021/11/07 02:33:37;;;;;;;0.63;0.53;;;;;;;;;;4490134;28;27704;-58
2021/11/07 02:35:47;;;;;;;0.80;0.52;;;;;;;;;;4490915;28;20584;-58
2021/11/07 02:37:58;;;;;;;1.00;0.57;;;;;;;;;;4489257;28;20122;-58
2021/11/07 02:40:10;;;;;;;0.30;0.30;;;;;;;;;;4489729;28;20109;-58
2021/11/07 02:42:21;;;;;;;0.40;0.40;;;;;;;;;;4488251;28;20582;-58
2021/11/07 02:44:42;;;;;;;1.48;0.43;;;;;;;;;;4490083;28;20018;-58
2021/11/07 02:46:52;;;;;;;1.65;0.55;;;;;;;;;;4491270;28;20121;-58
2021/11/07 02:49:04;;;;;;;0.37;0.37;;;;;;;;;;4490051;28;20401;-58
2021/11/07 02:51:15;;;;;;;0.40;0.40;;;;;;;;;;4489790;28;20809;-58
2021/11/07 02:53:25;;;;;;;0.40;0.40;;;;;;;;;;4488875;28;20022;-58
2021/11/07 02:55:36;;;;;;;0.30;0.30;;;;;;;;;;4505853;28;20066;-58
2021/11/07 02:57:47;;;;;;;0.90;0.33;;;;;;;;;;4491003;28;20112;-58
2021/11/07 02:59:59;;;;;;;0.30;0.30;;;;;;;;;;4490499;28;20034;-58
2021/11/07 03:02:12;;;;;;;0.70;0.50;;;;;;;;;;4490981;28;20442;-58
2021/11/07 03:04:23;;;;;;;1.08;0.50;;;;;;;;;;4490242;28;20031;-58
2021/11/07 03:06:34;;;;;;;;;;;;;;;;;;4490935;28;20131;-58
2021/11/07 03:08:49;;;;;;;0.85;0.40;;;;;;;;;;4491175;28;19929;-58
2021/11/07 03:11:00;;;;;;;0.47;0.40;;;;;;;;;;4490202;28;20045;-58
2021/11/07 03:13:13;;;;;;;0.40;0.40;;;;;;;;;;4491818;28;20033;-58
2021/11/07 03:15:23;;;;;;;0.98;0.57;;;;;;;;;;4490256;28;20034;-58
2021/11/07 03:17:34;;;;;;;0.40;0.37;;;;;;;;;;4491477;28;20037;-58
2021/11/07 03:19:44;;;;;;;0.50;0.50;;;;;;;;;;4490531;28;20027;-58
2021/11/07 03:22:00;;;;;;;1.00;0.50;;;;;;;;;;4492858;28;20038;-58
2021/11/07 03:24:12;;;;;;;0.40;0.38;;;;;;;;;;4491432;28;20105;-58
2021/11/07 03:26:25;;;;;;;0.43;0.30;;;;;;;;;;4498533;28;20636;-58
2021/11/07 03:28:36;;;;;;;0.50;0.50;;;;;;;;;;4489152;28;21242;-58
2021/11/07 03:35:29;;;;;;;0.50;0.40;;;;;;;;;;4488932;28;20107;-57
2021/11/07 03:37:45;;;;;;;0.40;0.40;;;;;;;;;;4490180;28;20111;-58
2021/11/07 03:39:59;;;;;;;0.30;0.30;;;;;;;;;;4490506;28;20018;-57
2021/11/07 03:42:11;;;;;;;0.75;0.50;;;;;;;;;;4490174;28;20034;-57
2021/11/07 03:44:23;;;;;;;0.30;0.30;;;;;;;;;;4490231;28;20022;-57
2021/11/07 03:46:34;;;;;;;0.40;0.40;;;;;;;;;;4498185;28;20037;-57
2021/11/07 03:48:45;;;;;;;0.47;0.40;;;;;;;;;;4489260;28;20042;-57
2021/11/07 03:50:57;;;;;;;0.35;0.35;;;;;;;;;;4489424;28;20026;-57
2021/11/07 03:53:07;;;;;;;0.30;0.30;;;;;;;;;;4489550;28;20023;-57
2021/11/07 03:55:18;;;;;;;0.37;0.37;;;;;;;;;;4488124;28;20022;-57
2021/11/07 03:57:29;;;;;;;0.43;0.33;;;;;;;;;;4488742;28;20034;-57
2021/11/07 03:59:41;;;;;;;0.30;0.30;;;;;;;;;;4488161;28;20446;-57
2021/11/07 04:01:52;;;;;;;0.47;0.40;;;;;;;;;;4491858;28;20029;-57
2021/11/07 04:04:04;;;;;;;0.68;0.40;;;;;;;;;;4489540;28;21003;-59
2021/11/07 04:06:15;;;;;;;0.30;0.30;;;;;;;;;;4490933;28;20041;-58
2021/11/07 04:08:25;;;;;;;0.30;0.30;;;;;;;;;;4489017;28;20578;-57
2021/11/07 04:10:36;;;;;;;0.30;0.30;;;;;;;;;;4486310;28;20022;-57
2021/11/07 04:12:46;;;;;;;0.40;0.40;;;;;;;;;;4489559;28;20474;-57
2021/11/07 04:14:57;;;;;;;0.40;0.40;;;;;;;;;;4488403;28;20166;-57
2021/11/07 04:17:07;;;;;;;0.37;0.37;;;;;;;;;;4488899;28;20142;-57
2021/11/07 04:19:18;;;;;;;0.77;0.40;;;;;;;;;;4489309;28;20494;-57
2021/11/07 04:21:28;;;;;;;0.50;0.40;;;;;;;;;;4488056;28;20037;-57
2021/11/07 04:23:39;;;;;;;0.40;0.40;;;;;;;;;;4488862;28;20053;-57
2021/11/07 04:25:49;;;;;;;0.40;0.40;;;;;;;;;;4488765;28;20023;-56
2021/11/07 04:28:01;;;;;;;0.30;0.30;;;;;;;;;;4489077;28;42224;-57
2021/11/07 04:30:11;;;;;;;;;;;;;;;;;;4489517;28;20951;-57
2021/11/07 04:32:22;;;;;;;0.60;0.60;;;;;;;;;;4488814;28;19909;-57
2021/11/07 04:34:34;;;;;;;0.30;0.30;;;;;;;;;;4487916;28;20033;-57
2021/11/07 04:36:44;;;;;;;0.93;0.40;;;;;;;;;;4488743;28;20140;-57
2021/11/07 04:38:54;;;;;;;0.50;0.50;;;;;;;;;;4487274;28;20105;-57
2021/11/07 04:41:06;;;;;;;0.70;0.50;;;;;;;;;;4488578;28;20109;-57
2021/11/07 04:43:17;;;;;;;0.43;0.43;;;;;;;;;;4505302;28;20026;-57
2021/11/07 04:45:27;;;;;;;0.52;0.52;;;;;;;;;;4489178;28;20026;-57
2021/11/07 04:47:38;;;;;;;0.60;0.50;;;;;;;;;;4486914;28;20050;-57
2021/11/07 04:49:53;;;;;;;0.87;0.50;;;;;;;;;;4494083;28;20033;-57
2021/11/07 04:52:04;;;;;;;0.40;0.40;;;;;;;;;;4486438;28;20011;-58
2021/11/07 04:54:14;;;;;;;0.60;0.60;;;;;;;;;;4486230;28;20023;-58
2021/11/07 04:56:25;;;;;;;1.30;0.70;;;;;;;;;;4489983;28;20034;-58
2021/11/07 04:58:35;;;;;;;1.03;0.80;;;;;;;;;;4489840;28;20037;-58
2021/11/07 05:00:46;;;;;;;0.60;0.60;;;;;;;;;;4473406;28;20034;-58
2021/11/07 05:02:57;;;;;;;0.90;0.70;;;;;;;;;;4488216;28;20264;-57
2021/11/07 05:05:08;;;;;;;0.80;0.80;;;;;;;;;;4490876;28;20026;-57
2021/11/07 05:07:18;;;;;;;1.38;0.95;;;;;;;;;;4488305;28;20077;-57
2021/11/07 05:09:29;;;;;;;1.33;1.20;;;;;;;;;;4488398;28;20034;-57
2021/11/07 05:11:42;;;;;;;5.03;3.10;;;;;;;;;;4490082;28;20065;-57
2021/11/07 05:13:53;;;;;;;3.58;2.60;;;;;;;;;;4487710;28;20026;-57
2021/11/07 05:16:03;;;;;;;3.87;2.17;;;;;;;;;;4487906;28;20022;-57
2021/11/07 05:18:17;;;;;;;1.48;1.20;;;;;;;;;;4488126;28;20065;-57
2021/11/07 05:20:28;;;;;;;1.75;1.60;;;;;;;;;;4488989;28;20561;-57
2021/11/07 05:22:39;;;;;;;4.22;2.63;;;;;;;;;;4504131;28;20034;-57
2021/11/07 05:24:50;;;;;;;1.85;1.55;;;;;;;;;;4489847;28;20577;-57
2021/11/07 05:27:00;;;;;;;1.73;1.17;;;;;;;;;;4487607;28;20132;-58
2021/11/07 05:29:11;;;;;;;1.53;1.40;;;;;;;;;;4486750;28;20069;-58
2021/11/07 05:31:21;;;;;;;1.20;1.10;;;;;;;;;;4495306;28;20228;-57
2021/11/07 05:33:32;;;;;;;1.40;1.07;;;;;;;;;;4487269;28;28108;-58
2021/11/07 05:35:42;;;;;;;2.97;1.50;;;;;;;;;;4488863;28;20038;-57
2021/11/07 05:37:53;;;;;;;1.70;1.33;;;;;;;;;;4486149;28;20030;-57
2021/11/07 05:40:08;;;;;;;1.20;1.10;;;;;;;;;;4489505;28;20033;-58
2021/11/07 05:42:20;;;;;;;1.45;1.20;;;;;;;;;;4487390;28;20073;-58
2021/11/07 05:44:30;;;;;;;;;;;;;;;;;;4485931;28;21021;-59
2021/11/07 05:46:41;;;;;;;3.10;1.40;;;;;;;;;;4487529;28;19968;-59
2021/11/07 05:48:52;;;;;;;1.25;1.15;;;;;;;;;;4485107;28;20034;-59
2021/11/07 05:51:02;;;;;;;2.57;1.67;;;;;;;;;;4487770;28;20640;-58
2021/11/07 05:53:13;;;;;;;1.97;1.63;;;;;;;;;;4487925;28;20031;-58
2021/11/07 05:55:23;;;;;;;2.53;2.20;;;;;;;;;;4487783;28;20038;-58
2021/11/07 05:57:34;;;;;;;2.50;1.87;;;;;;;;;;4486150;28;20022;-58
2021/11/07 05:59:44;;;;;;;2.03;1.63;;;;;;;;;;4486773;28;20026;-58
2021/11/07 06:01:56;;;;;;;3.17;1.93;;;;;;;;;;4487674;28;20082;-59
2021/11/07 06:04:06;;;;;;;;;;;;;;;;;;4487009;28;21020;-59
2021/11/07 06:06:17;;;;;;;2.08;1.33;;;;;;;;;;4489563;28;20028;-59
2021/11/07 06:08:28;;;;;;;1.37;1.27;;;;;;;;;;4492308;28;21369;-59
2021/11/07 06:10:38;;;;;;;2.53;1.40;;;;;;;;;;4490709;28;20026;-59
2021/11/07 06:12:49;;;;;;;1.80;1.33;;;;;;;;;;4492572;28;20033;-59
2021/11/07 06:14:59;;;;;;;1.97;1.40;;;;;;;;;;4491017;28;20490;-59
2021/11/07 06:17:10;;;;;;;2.40;1.50;;;;;;;;;;4488718;28;20038;-58
2021/11/07 06:19:20;;;;;;;1.37;1.27;;;;;;;;;;4491936;28;20037;-58
2021/11/07 06:21:32;;;;;;;1.20;1.10;;;;;;;;;;4491034;28;29296;-58
2021/11/07 06:23:43;;;;;;;2.17;1.40;;;;;;;;;;4499302;28;20026;-58
2021/11/07 06:25:53;;;;;;;1.83;1.50;;;;;;;;;;4491503;28;20034;-59
2021/11/07 06:28:05;;;;;;;1.20;1.00;;;;;;;;;;4477656;28;20302;-59
2021/11/07 06:30:16;;;;;;;1.00;0.90;;;;;;;;;;4480613;28;20026;-58
2021/11/07 06:32:26;;;;;;;1.97;1.40;;;;;;;;;;4490049;28;20014;-57
2021/11/07 06:34:37;;;;;;;1.60;1.37;;;;;;;;;;4488907;28;20038;-57
2021/11/07 06:36:48;;;;;;;1.43;1.30;;;;;;;;;;4491220;28;20121;-57
2021/11/07 06:38:59;;;;;;;1.80;1.42;;;;;;;;;;4489842;28;20030;-58
2021/11/07 06:41:10;;;;;;;2.80;1.48;;;;;;;;;;4490052;28;20028;-57
2021/11/07 06:43:20;;;;;;;1.33;1.20;;;;;;;;;;4488709;28;20885;-57
2021/11/07 06:45:32;;;;;;;1.40;1.30;;;;;;;;;;4488728;28;20030;-58
2021/11/07 06:47:43;;;;;;;1.67;1.20;;;;;;;;;;4490275;28;21511;-58
2021/11/07 06:49:53;;;;;;;2.33;1.40;;;;;;;;;;4490066;28;20030;-59
2021/11/07 06:52:04;;;;;;;1.30;1.20;;;;;;;;;;4490074;28;20030;-59
2021/11/07 06:54:15;;;;;;;2.15;1.45;;;;;;;;;;4489853;28;20102;-58
2021/11/07 06:56:25;;;;;;;2.50;1.40;;;;;;;;;;4491092;28;20093;-58
2021/11/07 06:58:36;;;;;;;1.70;1.20;;;;;;;;;;4490453;28;20034;-58
2021/11/07 07:00:46;;;;;;;1.93;1.20;;;;;;;;;;4491291;28;20030;-58
2021/11/07 07:02:57;;;;;;;1.67;1.33;;;;;;;;;;4490456;28;20084;-58
2021/11/07 07:05:09;;;;;;;1.98;1.30;;;;;;;;;;4491635;28;20026;-57
2021/11/07 07:07:20;;;;;;;2.40;1.30;;;;;;;;;;4490469;28;20046;-57
2021/11/07 07:09:38;;;;;;;1.27;1.13;;;;;;;;;;4490464;28;20301;-58
2021/11/07 07:11:52;;;;;;;2.75;1.20;;;;;;;;;;4489170;28;20022;-57
2021/11/07 07:14:09;;;;;;;2.72;1.35;;;;;;;;;;4489259;28;20101;-57
2021/11/07 07:19:17;;;;;;;1.88;1.05;;;;;;;;;;4489209;28;20555;-58
2021/11/07 07:21:42;;;;;;;2.72;1.23;;;;;;;;;;4489924;28;20024;-59
2021/11/07 07:29:09;;;;;;;2.23;1.00;;;;;;;;;;4455133;28;20065;-58
2021/11/07 07:33:44;;;;;;;1.67;1.10;;;;;;;;;;4454028;28;20091;-59
2021/11/07 07:35:56;;;;;;;3.15;1.52;;;;;;;;;;4470174;28;20038;-59
2021/11/07 07:38:07;;;;;;;2.92;1.10;;;;;;;;;;4469439;28;20574;-59
2021/11/07 07:40:17;;;;;;;2.30;1.17;;;;;;;;;;4456246;28;20039;-59
2021/11/07 07:42:30;;;;;;;4.40;1.30;;;;;;;;;;4470222;28;20391;-59
2021/11/07 07:44:40;;;;;;;2.45;1.30;;;;;;;;;;4444043;28;20230;-58
2021/11/07 07:46:52;;;;;;;3.90;1.23;;;;;;;;;;4454129;28;20030;-59
2021/11/07 07:49:03;;;;;;;2.40;1.13;;;;;;;;;;4454129;28;20038;-59
2021/11/07 07:51:18;;;;;;;3.63;1.40;;;;;;;;;;4452919;28;21067;-58
2021/11/07 07:53:29;;;;;;;3.08;1.20;;;;;;;;;;4453786;28;20039;-59
2021/11/07 07:55:40;;;;;;;1.73;1.13;;;;;;;;;;4455140;28;20114;-59
2021/11/07 07:57:50;;;;;;;2.33;1.07;;;;;;;;;;4476228;28;20625;-58
2021/11/07 08:00:03;;;;;;;2.15;1.05;;;;;;;;;;4488296;28;20035;-58
2021/11/07 08:02:22;;;;;;;2.15;1.25;;;;;;;;;;4489983;28;20034;-59
2021/11/07 08:04:33;;;;;;;2.30;1.23;;;;;;;;;;4487999;28;20066;-59
2021/11/07 08:06:43;;;;;;;2.83;1.33;;;;;;;;;;4480773;28;20117;-58
2021/11/07 08:08:54;;;;;;;2.43;1.30;;;;;;;;;;4496433;28;20050;-60
2021/11/07 08:11:05;;;;;;;2.63;1.43;;;;;;;;;;4495185;28;20037;-57
2021/11/07 08:13:15;;;;;;;2.33;1.35;;;;;;;;;;4488267;28;20041;-58
2021/11/07 08:15:25;;;;;;;2.13;1.10;;;;;;;;;;4475480;28;20121;-57
2021/11/07 08:17:36;;;;;;;1.67;1.30;;;;;;;;;;4487987;28;20038;-58
2021/11/07 08:19:47;;;;;;;3.03;1.60;;;;;;;;;;4479663;28;20089;-58
2021/11/07 08:21:58;;;;;;;2.73;1.40;;;;;;;;;;4478955;28;20081;-59
2021/11/07 08:24:10;;;;;;;1.73;1.33;;;;;;;;;;4488735;28;20031;-59
2021/11/07 08:26:22;;;;;;;2.42;1.50;;;;;;;;;;4487295;28;20026;-59
2021/11/07 08:28:32;;;;;;;1.63;1.30;;;;;;;;;;4485788;28;20046;-60
2021/11/07 08:30:43;;;;;;;2.40;1.57;;;;;;;;;;4485816;28;20038;-59
2021/11/07 08:32:54;;;;;;;1.87;1.50;;;;;;;;;;4487411;28;20030;-58
2021/11/07 08:35:05;;;;;;;2.87;1.70;;;;;;;;;;4488869;28;20623;-57
2021/11/07 08:37:17;;;;;;;2.65;1.58;;;;;;;;;;4486738;28;20030;-57
2021/11/07 08:39:37;;;;;;;2.50;1.70;;;;;;;;;;4486144;28;20109;-57
2021/11/07 08:41:56;;;;;;;4.03;1.92;;;;;;;;;;4488522;28;20069;-57
2021/11/07 09:01:45;;;;;;;2.85;2.00;;;;;;;;;;4487612;28;20042;-57
2021/11/07 09:04:05;;;;;;;2.88;1.88;;;;;;;;;;4486624;28;20571;-57
2021/11/07 09:08:32;;;;;;;3.17;1.83;;;;;;;;;;4487329;28;20046;-66
2021/11/07 09:10:44;;;;;;;4.18;1.95;;;;;;;;;;4488328;28;20497;-65
2021/11/07 09:12:56;;;;;;;3.05;2.00;;;;;;;;;;4488216;28;20034;-64
2021/11/07 09:15:07;;;;;;;4.32;1.92;;;;;;;;;;4487207;28;20101;-65
2021/11/07 09:17:17;;;;;;;3.37;2.00;;;;;;;;;;4488300;28;20563;-65
2021/11/07 09:19:29;;;;;;;3.83;2.20;;;;;;;;;;4488729;28;20102;-61
2021/11/07 09:21:43;;;;;;;3.28;1.98;;;;;;;;;;4488719;28;20961;-58
2021/11/07 09:23:58;;;;;;;3.58;1.98;;;;;;;;;;4485631;28;20030;-58
2021/11/07 09:26:51;;;;;;;3.08;1.65;;;;;;;;;;4495557;28;20077;-58
2021/11/07 09:31:25;;;;;;;3.13;1.80;;;;;;;;;;4486085;28;20022;-58
2021/11/07 09:33:48;;;;;;;4.40;1.92;;;;;;;;;;4485946;28;21362;-58
2021/11/07 09:38:18;;;;;;;2.90;1.60;;;;;;;;;;4486647;28;20022;-58
2021/11/07 09:40:32;;;;;;;4.63;1.90;;;;;;;;;;4490686;28;20021;-58
2021/11/07 09:45:10;;;;;;;4.70;1.75;;;;;;;;;;4492070;28;20033;-58
2021/11/07 09:47:22;;;;;;;4.28;1.83;;;;;;;;;;4488408;28;20648;-58
2021/11/07 09:49:37;;;;;;;4.43;1.83;;;;;;;;;;4489298;28;20038;-58
2021/11/07 09:51:55;;;;;;;3.75;1.73;;;;;;;;;;4481674;28;20030;-58
2021/11/07 09:54:07;;;;;;;4.72;1.77;;;;;;;;;;4487630;28;20062;-58
2021/11/07 09:56:19;;;;;;;;;;;;;;;;;;4490163;28;21207;-57
2021/11/07 09:58:30;;;;;;;3.45;1.48;;;;;;;;;;4489243;28;20424;-58
2021/11/07 10:00:47;;;;;;;5.90;1.93;;;;;;;;;;4488910;28;20022;-57
2021/11/07 10:02:57;;;;;;;4.43;1.55;;;;;;;;;;4490008;28;20606;-58
2021/11/07 10:05:10;;;;;;;5.40;1.93;;;;;;;;;;4497599;28;20042;-57
2021/11/07 10:07:25;;;;;;;5.07;2.60;;;;;;;;;;4487685;28;20549;-57
2021/11/07 10:09:40;;;;;;;3.75;1.70;;;;;;;;;;4486232;28;20033;-57
2021/11/07 10:12:30;;;;;;;3.55;1.58;;;;;;;;;;4487203;28;20698;-57
2021/11/07 10:14:48;;;;;;;4.50;1.70;;;;;;;;;;4476932;28;20053;-57
2021/11/07 10:16:58;;;;;;;3.75;1.52;;;;;;;;;;4489073;28;20157;-57
2021/11/07 10:19:16;;;;;;;4.43;1.60;;;;;;;;;;4487667;28;20056;-58
2021/11/07 10:21:34;;;;;;;3.53;1.48;;;;;;;;;;4486609;28;20030;-57
2021/11/07 10:23:49;;;;;;;5.03;1.67;;;;;;;;;;4486858;28;20026;-57
2021/11/07 10:26:24;;;;;;;3.63;1.45;;;;;;;;;;4488603;28;20050;-57
2021/11/07 10:28:46;;;;;;;4.63;1.58;;;;;;;;;;4487457;28;20042;-57
2021/11/07 10:31:09;;;;;;;;;;;;;;;;;;4486324;28;20044;-57
2021/11/07 10:34:25;;;;;;;4.45;1.58;;;;;;;;;;4487231;28;19939;-57
2021/11/07 10:44:17;;;;;;;4.07;1.70;;;;;;;;;;4488981;28;20599;-57
2021/11/07 10:46:41;;;;;;;4.50;1.50;;;;;;;;;;4489824;28;20084;-57
2021/11/07 10:54:24;;;;;;;5.00;1.52;;;;;;;;;;4487905;28;20024;-58
2021/11/07 10:56:35;;;;;;;4.22;1.70;;;;;;;;;;4487279;28;20676;-58
2021/11/07 10:58:50;;;;;;;5.47;1.80;;;;;;;;;;4487693;28;20104;-58
2021/11/07 11:01:05;;;;;;;4.05;1.55;;;;;;;;;;4488727;28;20475;-58
2021/11/07 11:03:20;;;;;;;4.15;1.50;;;;;;;;;;4489864;28;20585;-58
2021/11/07 11:05:52;;;;;;;3.47;1.27;;;;;;;;;;4501737;28;20040;-58
2021/11/07 11:08:21;;;;;;;5.50;1.80;;;;;;;;;;4488220;28;20142;-58
2021/11/07 11:10:56;;;;;;;4.45;1.60;;;;;;;;;;4487650;28;20031;-58
2021/11/07 11:13:17;;;;;;;3.85;1.45;;;;;;;;;;4496657;28;20025;-58
2021/11/07 11:15:50;;;;;;;4.18;1.40;;;;;;;;;;4486117;28;20080;-58
2021/11/07 11:18:20;;;;;;;4.40;1.80;;;;;;;;;;4488084;28;20049;-58
2021/11/07 11:20:41;;;;;;;4.13;1.35;;;;;;;;;;4490463;28;20029;-58
2021/11/07 11:23:08;;;;;;;5.22;1.70;;;;;;;;;;4488556;28;20124;-58
2021/11/07 11:39:48;;;;;;;4.45;1.27;;;;;;;;;;4481638;28;20046;-58
2021/11/07 11:42:10;;;;;;;4.88;1.45;;;;;;;;;;4487128;28;20034;-58
2021/11/07 11:44:21;;;;;;;1.90;1.02;;;;;;;;;;4493837;28;20031;-58
2021/11/07 11:46:43;;;;;;;4.28;1.42;;;;;;;;;;4489141;28;20027;-58
2021/11/07 11:49:45;;;;;;;3.63;1.50;;;;;;;;;;4487828;28;20058;-58
2021/11/07 11:52:12;;;;;;;4.38;1.60;;;;;;;;;;4485532;28;20098;-58
2021/11/07 11:54:43;;;;;;;4.40;1.50;;;;;;;;;;4485452;28;21378;-58
2021/11/07 11:57:09;;;;;;;4.37;1.37;;;;;;;;;;4487001;28;20570;-58
2021/11/07 11:59:37;;;;;;;5.30;1.73;;;;;;;;;;4487522;28;20250;-58
2021/11/07 12:02:09;;;;;;;3.70;1.50;;;;;;;;;;4489896;28;20031;-58
2021/11/07 12:04:32;;;;;;;;;;;;;;;;;;4479736;28;20039;-59
2021/11/07 12:06:52;;;;;;;4.60;1.70;;;;;;;;;;4485853;28;19929;-58
2021/11/07 12:11:57;;;;;;;3.38;1.30;;;;;;;;;;4487669;28;20518;-58
2021/11/07 12:14:24;;;;;;;3.80;1.63;;;;;;;;;;4487748;28;20608;-58
2021/11/07 12:16:52;;;;;;;4.43;1.35;;;;;;;;;;4490011;28;20027;-59
2021/11/07 12:19:09;;;;;;;3.20;1.20;;;;;;;;;;4489336;28;20152;-58
2021/11/07 12:21:23;;;;;;;4.72;1.60;;;;;;;;;;4491102;28;20057;-58
2021/11/07 12:23:34;;;;;;;4.75;1.77;;;;;;;;;;4487680;28;20113;-58
2021/11/07 12:25:46;;;;;;;2.95;1.10;;;;;;;;;;4488636;28;20021;-58
2021/11/07 12:27:56;;;;;;;3.22;1.25;;;;;;;;;;4489841;28;20136;-57
2021/11/07 12:30:24;;;;;;;5.70;1.37;;;;;;;;;;4486286;28;20026;-57
2021/11/07 12:32:37;;;;;;;3.10;1.45;;;;;;;;;;4487913;28;20023;-58
2021/11/07 12:40:34;;;;;;;3.85;1.20;;;;;;;;;;4489819;28;20029;-57
2021/11/07 12:43:07;;;;;;;5.57;2.40;;;;;;;;;;4486880;28;20037;-57
2021/11/07 12:45:26;;;;;;;5.43;2.38;;;;;;;;;;4487299;28;20041;-57
2021/11/07 12:47:47;;;;;;;4.63;1.80;;;;;;;;;;4496511;28;20249;-57
2021/11/07 12:50:03;;;;;;;4.03;1.83;;;;;;;;;;4485300;28;20097;-57
2021/11/07 12:52:16;;;;;;;4.43;1.40;;;;;;;;;;4487412;28;20710;-57
2021/11/07 12:54:30;;;;;;;4.07;1.40;;;;;;;;;;4488925;28;20156;-58
2021/11/07 12:56:42;;;;;;;4.32;1.50;;;;;;;;;;4488327;28;20648;-58
2021/11/07 12:58:52;;;;;;;4.07;1.50;;;;;;;;;;4487070;28;20029;-57
2021/11/07 13:01:03;;;;;;;4.70;1.40;;;;;;;;;;4487146;28;20042;-56
2021/11/07 13:03:16;;;;;;;4.60;1.70;;;;;;;;;;4488591;28;20057;-60
2021/11/07 13:05:31;;;;;;;3.53;1.45;;;;;;;;;;4486957;28;20594;-58
2021/11/07 13:07:52;;;;;;;4.15;1.30;;;;;;;;;;4486737;28;21252;-58
2021/11/07 13:10:10;;;;;;;2.78;1.20;;;;;;;;;;4496154;28;20018;-58
2021/11/07 13:12:33;;;;;;;3.67;1.50;;;;;;;;;;4488440;28;21010;-58
2021/11/07 13:17:43;;;;;;;2.17;0.90;;;;;;;;;;4488700;28;20653;-58
2021/11/07 13:20:26;;;;;;;2.90;1.00;;;;;;;;;;4488763;28;20030;-59
2021/11/07 13:23:02;;;;;;;2.28;1.00;;;;;;;;;;4488703;28;20653;-58
2021/11/07 13:25:18;;;;;;;3.03;0.90;;;;;;;;;;4489365;28;20030;-59
2021/11/07 13:27:40;;;;;;;3.78;0.98;;;;;;;;;;4486701;28;20663;-56
2021/11/07 13:30:01;;;;;;;2.42;0.75;;;;;;;;;;4487254;28;20031;-56
2021/11/07 13:35:11;;;;;;;2.70;1.00;;;;;;;;;;4489113;28;20122;-57
2021/11/07 13:37:23;;;;;;;2.95;1.13;;;;;;;;;;4484544;28;20136;-57
2021/11/07 13:39:36;;;;;;;2.38;1.13;;;;;;;;;;4485432;28;20023;-58
2021/11/07 13:42:09;;;;;;;3.28;0.95;;;;;;;;;;4495180;28;21183;-57
2021/11/07 13:44:24;;;;;;;3.17;1.17;;;;;;;;;;4488225;28;20580;-57
2021/11/07 13:46:36;;;;;;;3.05;1.27;;;;;;;;;;4485650;28;20046;-57
2021/11/07 13:49:01;;;;;;;3.25;1.10;;;;;;;;;;4487892;28;20046;-58
2021/11/07 13:51:12;;;;;;;3.47;1.10;;;;;;;;;;4488302;28;21042;-57
2021/11/07 13:53:23;;;;;;;;;;;;;;;;;;4488829;28;20088;-57
2021/11/07 13:55:35;;;;;;;2.93;1.00;;;;;;;;;;4488890;28;19916;-57
2021/11/07 13:57:46;;;;;;;2.90;0.98;;;;;;;;;;4487207;28;20257;-58
2021/11/07 13:59:57;;;;;;;4.37;1.30;;;;;;;;;;4502455;28;20030;-57
2021/11/07 14:02:17;;;;;;;2.80;0.90;;;;;;;;;;4487463;28;20166;-57
2021/11/07 14:04:51;;;;;;;4.13;1.25;;;;;;;;;;4501917;28;20033;-57
2021/11/07 14:07:14;;;;;;;3.83;1.13;;;;;;;;;;4485197;28;20727;-57
2021/11/07 14:09:25;;;;;;;2.47;1.33;;;;;;;;;;4487816;28;20573;-57
2021/11/07 14:11:37;;;;;;;3.73;1.40;;;;;;;;;;4486573;28;20026;-57
2021/11/07 14:13:56;;;;;;;3.35;1.30;;;;;;;;;;4494944;28;20616;-57
2021/11/07 14:16:07;;;;;;;3.55;1.20;;;;;;;;;;4487025;28;20026;-57
2021/11/07 14:18:27;;;;;;;2.50;1.10;;;;;;;;;;4487794;28;20098;-57
2021/11/07 14:20:50;;;;;;;3.00;1.10;;;;;;;;;;4487185;28;20034;-58
2021/11/07 14:23:16;;;;;;;2.45;1.08;;;;;;;;;;4485113;28;20053;-57
2021/11/07 14:25:26;;;;;;;3.50;1.30;;;;;;;;;;4487107;28;20647;-57
2021/11/07 14:27:50;;;;;;;3.20;1.10;;;;;;;;;;4492172;28;20135;-56
2021/11/07 14:30:05;;;;;;;2.75;1.13;;;;;;;;;;4490327;28;20030;-57
2021/11/07 14:36:56;;;;;;;2.67;0.90;;;;;;;;;;4491870;28;20531;-57
2021/11/07 14:39:25;;;;;;;3.90;1.52;;;;;;;;;;4489609;28;20520;-57
2021/11/07 14:41:58;;;;;;;3.67;1.40;;;;;;;;;;4489472;28;20023;-57
2021/11/07 14:44:32;;;;;;;2.72;1.33;;;;;;;;;;4489755;28;20030;-57
2021/11/07 14:46:54;;;;;;;4.10;1.20;;;;;;;;;;4488918;28;21297;-57
2021/11/07 14:51:48;;;;;;;5.03;2.05;;;;;;;;;;4489357;28;20027;-57
2021/11/07 14:54:18;;;;;;;4.65;1.48;;;;;;;;;;4489918;28;20026;-57
2021/11/07 14:59:21;;;;;;;3.13;1.10;;;;;;;;;;4463209;28;20509;-57
2021/11/07 15:02:37;;;;;;;;;;;;;;;;;;4490608;28;20030;-57
2021/11/07 15:04:16;;;;;;;4.05;1.30;;;;;;;;;;4480499;28;20024;-57
2021/11/07 15:08:54;;;;;;;2.97;1.02;;;;;;;;;;4489268;28;20042;-56
2021/11/07 15:20:56;;;;;;;3.65;1.30;;;;;;;;;;4489732;28;20072;-58
2021/11/07 15:23:07;;;;;;;4.00;1.10;;;;;;;;;;4489310;28;20121;-58
2021/11/07 15:25:19;;;;;;;2.85;1.70;;;;;;;;;;4488214;28;20076;-58
2021/11/07 15:27:30;;;;;;;5.55;2.10;;;;;;;;;;4492118;28;20982;-57
2021/11/07 15:30:00;;;;;;;3.58;1.20;;;;;;;;;;4490568;28;20030;-57
2021/11/07 15:32:15;;;;;;;3.80;1.60;;;;;;;;;;4490022;28;20022;-57
2021/11/07 15:34:31;;;;;;;3.72;1.65;;;;;;;;;;4487572;28;20033;-57
2021/11/07 15:36:44;;;;;;;4.28;1.67;;;;;;;;;;4490547;28;20534;-57
2021/11/07 15:39:10;;;;;;;3.80;1.80;;;;;;;;;;4489605;28;20026;-57
2021/11/07 15:41:21;;;;;;;4.90;2.40;;;;;;;;;;4491598;28;20092;-57
2021/11/07 15:43:31;;;;;;;4.97;1.80;;;;;;;;;;4488026;28;20041;-57